createdAt,value
2023-01-10T00:01:03.636Z,2.6
2023-01-10T00:04:05.604Z,2.4
2023-01-10T00:07:07.591Z,3.3
2023-01-10T00:10:09.516Z,2.8
2023-01-10T00:13:11.517Z,5.6
2023-01-10T00:16:13.489Z,3.9
2023-01-10T00:19:15.463Z,2.9
2023-01-10T00:22:17.434Z,2.3
2023-01-10T00:25:19.350Z,2
2023-01-10T00:28:21.339Z,4.2
2023-01-10T00:31:23.345Z,2.3
2023-01-10T00:34:25.265Z,3
2023-01-10T00:37:27.237Z,1.5
2023-01-10T00:40:29.231Z,2
2023-01-10T00:43:31.161Z,3.1
2023-01-10T00:46:33.200Z,1.2
2023-01-10T00:49:35.072Z,1.9
2023-01-10T00:52:37.059Z,1.2
2023-01-10T00:55:39.014Z,0.7
2023-01-10T00:58:40.974Z,1.6
2023-01-10T01:01:43.086Z,3
2023-01-10T01:04:45.079Z,2
2023-01-10T01:07:46.890Z,1.2
2023-01-10T01:10:48.844Z,1.5
2023-01-10T01:13:50.815Z,2.6
2023-01-10T01:16:52.769Z,1.6
2023-01-10T01:19:54.677Z,1.4
2023-01-10T01:22:56.643Z,2.3
2023-01-10T01:25:58.655Z,1.6
2023-01-10T01:29:00.584Z,0.8
2023-01-10T01:32:02.546Z,1.9
2023-01-10T01:35:04.536Z,2.1
2023-01-10T01:38:06.501Z,1.5
2023-01-10T01:41:08.488Z,2.5
2023-01-10T01:44:10.459Z,1.4
2023-01-10T01:47:12.447Z,1.6
2023-01-10T01:50:14.391Z,1.2
2023-01-10T01:53:16.383Z,2.4
2023-01-10T01:56:18.331Z,1.6
2023-01-10T01:59:20.292Z,2.6
2023-01-10T02:02:22.345Z,1.6
2023-01-10T02:05:24.232Z,2.8
2023-01-10T02:08:26.195Z,1.7
2023-01-10T02:11:28.139Z,4.3
2023-01-10T02:14:30.081Z,3.9
2023-01-10T02:17:32.048Z,2
2023-01-10T02:20:34.039Z,1.4
2023-01-10T02:23:35.980Z,1.8
2023-01-10T02:26:37.953Z,1.8
2023-01-10T02:29:39.895Z,2.8
2023-01-10T02:32:50.488Z,1.4
2023-01-10T02:35:43.810Z,2.6
2023-01-10T02:38:45.798Z,2.7
2023-01-10T02:41:47.771Z,2.8
2023-01-10T02:44:49.737Z,1.6
2023-01-10T02:47:51.687Z,2
2023-01-10T02:50:53.618Z,1
2023-01-10T02:53:55.571Z,2
2023-01-10T02:56:57.550Z,2
2023-01-10T02:59:59.514Z,2.4
2023-01-10T03:03:01.521Z,1.9
2023-01-10T03:06:03.477Z,3.3
2023-01-10T03:09:05.384Z,1.9
2023-01-10T03:12:07.338Z,1.6
2023-01-10T03:15:09.307Z,1.6
2023-01-10T03:18:11.284Z,2
2023-01-10T03:21:13.242Z,3.8
2023-01-10T03:24:15.353Z,1.6
2023-01-10T03:27:17.187Z,2
2023-01-10T03:30:19.336Z,2.2
2023-01-10T03:33:21.287Z,2.3
2023-01-10T03:36:23.209Z,4.2
2023-01-10T03:39:25.207Z,1.5
2023-01-10T03:42:27.152Z,3.4
2023-01-10T03:45:29.121Z,2.2
2023-01-10T03:48:31.087Z,1.9
2023-01-10T03:51:33.052Z,6.6
2023-01-10T03:54:35.003Z,4
2023-01-10T03:57:36.940Z,1.7
2023-01-10T04:00:38.905Z,2
2023-01-10T04:03:40.972Z,4.5
2023-01-10T04:06:42.858Z,1.8
2023-01-10T04:09:44.817Z,2.8
2023-01-10T04:12:46.818Z,2.6
2023-01-10T04:15:48.737Z,0.7
2023-01-10T04:18:50.735Z,2.1
2023-01-10T04:21:52.699Z,1.1
2023-01-10T04:24:54.630Z,2.3
2023-01-10T04:27:56.619Z,3.7
2023-01-10T04:30:58.575Z,5.1
2023-01-10T04:34:00.509Z,2.6
2023-01-10T04:37:02.471Z,2.2
2023-01-10T04:40:04.419Z,4.7
2023-01-10T04:43:06.387Z,3.5
2023-01-10T04:46:08.404Z,1.9
2023-01-10T04:49:10.347Z,4.3
2023-01-10T04:52:12.279Z,4.1
2023-01-10T04:55:14.213Z,7.2
2023-01-10T04:58:16.170Z,4.3
2023-01-10T05:01:18.191Z,4.6
2023-01-10T05:04:20.954Z,4.1
2023-01-10T05:07:22.106Z,7.3
2023-01-10T05:10:24.046Z,3.6
2023-01-10T05:13:26.030Z,3.1
2023-01-10T05:16:28.051Z,5
2023-01-10T05:19:29.933Z,3.2
2023-01-10T05:22:31.910Z,7.7
2023-01-10T05:25:33.938Z,3.1
2023-01-10T05:28:35.878Z,6.8
2023-01-10T05:31:37.853Z,4.6
2023-01-10T05:34:39.785Z,5.6
2023-01-10T05:37:41.736Z,6.4
2023-01-10T05:40:43.711Z,6.3
2023-01-10T05:43:45.696Z,5.4
2023-01-10T05:46:47.657Z,7.2
2023-01-10T05:49:49.695Z,4.5
2023-01-10T05:52:51.614Z,6.5
2023-01-10T05:55:53.564Z,5.8
2023-01-10T05:59:05.206Z,6.3
2023-01-10T06:01:57.549Z,9.4
2023-01-10T06:04:59.467Z,5.6
2023-01-10T06:08:01.394Z,4.9
2023-01-10T06:11:03.435Z,7.6
2023-01-10T06:14:05.393Z,11.6
2023-01-10T06:17:07.345Z,6.3
2023-01-10T06:20:09.315Z,8
2023-01-10T06:23:11.300Z,9.3
2023-01-10T06:26:13.244Z,7
2023-01-10T06:29:15.247Z,6
2023-01-10T06:32:17.182Z,10.6
2023-01-10T06:35:19.180Z,6.2
2023-01-10T06:38:21.151Z,6.1
2023-01-10T06:41:23.146Z,7.5
2023-01-10T06:44:25.027Z,7.4
2023-01-10T06:47:27.003Z,8.6
2023-01-10T06:50:28.997Z,6.2
2023-01-10T06:53:30.901Z,9.5
2023-01-10T06:56:32.896Z,7.5
2023-01-10T06:59:34.848Z,8.1
2023-01-10T07:02:36.775Z,7.4
2023-01-10T07:05:38.757Z,8
2023-01-10T07:08:40.715Z,6.2
2023-01-10T07:11:42.680Z,6.4
2023-01-10T07:14:44.642Z,7.8
2023-01-10T07:17:46.833Z,8.4
2023-01-10T07:20:48.599Z,7.6
2023-01-10T07:23:50.566Z,7.1
2023-01-10T07:26:52.492Z,7.1
2023-01-10T07:29:54.453Z,5.4
2023-01-10T07:32:56.438Z,5.8
2023-01-10T07:35:58.400Z,9.1
2023-01-10T07:39:00.347Z,8.9
2023-01-10T07:42:02.310Z,6.5
2023-01-10T07:45:04.281Z,6.3
2023-01-10T07:48:06.250Z,7.8
2023-01-10T07:51:08.249Z,10.8
2023-01-10T07:54:14.686Z,9.5
2023-01-10T07:57:12.175Z,8.1
2023-01-10T08:00:14.143Z,5.9
2023-01-10T08:03:16.227Z,8.3
2023-01-10T08:06:18.107Z,8.7
2023-01-10T08:09:20.355Z,4.7
2023-01-10T08:12:22.314Z,11.9
2023-01-10T08:15:24.341Z,7.1
2023-01-10T08:18:26.329Z,5
2023-01-10T08:21:28.399Z,8.3
2023-01-10T08:24:30.332Z,5
2023-01-10T08:27:32.279Z,7.6
2023-01-10T08:30:34.300Z,11
2023-01-10T08:33:36.235Z,8.7
2023-01-10T08:36:38.181Z,11.1
2023-01-10T08:39:40.162Z,7.3
2023-01-10T08:42:42.111Z,9.1
2023-01-10T08:45:44.068Z,8.4
2023-01-10T08:48:46.071Z,9.4
2023-01-10T08:51:47.999Z,7.8
2023-01-10T08:54:49.994Z,12.1
2023-01-10T08:57:51.985Z,7
2023-01-10T09:00:53.994Z,7.1
2023-01-10T09:03:55.855Z,7
2023-01-10T09:06:57.813Z,10.3
2023-01-10T09:09:59.795Z,8.6
2023-01-10T09:13:02.082Z,7.2
2023-01-10T09:16:03.768Z,6.4
2023-01-10T09:19:05.717Z,12.1
2023-01-10T09:22:07.663Z,12.1
2023-01-10T09:25:09.606Z,13.9
2023-01-10T09:28:11.592Z,8.6
2023-01-10T09:31:13.550Z,9
2023-01-10T09:34:15.496Z,12.6
2023-01-10T09:37:17.490Z,12.3
2023-01-10T09:40:19.469Z,13.5
2023-01-10T09:43:21.398Z,9.5
2023-01-10T09:46:23.471Z,9.4
2023-01-10T09:49:25.437Z,10.2
2023-01-10T09:52:27.468Z,13
2023-01-10T09:55:31.474Z,10.7
2023-01-10T09:58:31.334Z,12.4
2023-01-10T10:01:33.283Z,10.2
2023-01-10T10:04:35.319Z,14
2023-01-10T10:07:37.231Z,11.4
2023-01-10T10:10:39.301Z,8.8
2023-01-10T10:13:41.152Z,8.5
2023-01-10T10:16:43.124Z,6.7
2023-01-10T10:19:45.078Z,10.5
2023-01-10T10:22:47.078Z,9.6
2023-01-10T10:25:49.009Z,11.3
2023-01-10T10:28:54.790Z,10.5
2023-01-10T10:31:53.097Z,12
2023-01-10T10:34:54.950Z,12.9
2023-01-10T10:37:56.951Z,10.4
2023-01-10T10:40:58.897Z,7.9
2023-01-10T10:44:00.860Z,9
2023-01-10T10:47:02.808Z,18.9
2023-01-10T10:50:04.766Z,8.5
2023-01-10T10:53:06.724Z,9.4
2023-01-10T10:56:08.688Z,8
2023-01-10T10:59:10.690Z,11.2
2023-01-10T11:02:12.625Z,7.7
2023-01-10T11:05:14.528Z,8.2
2023-01-10T11:08:16.501Z,9.4
2023-01-10T11:11:18.562Z,10.5
2023-01-10T11:14:20.438Z,9.8
2023-01-10T11:17:22.412Z,8.7
2023-01-10T11:20:24.374Z,9.3
2023-01-10T11:23:26.362Z,15.7
2023-01-10T11:26:28.356Z,13.5
2023-01-10T11:29:30.327Z,10.5
2023-01-10T11:32:35.378Z,11.5
2023-01-10T11:35:37.317Z,7.9
2023-01-10T11:38:39.272Z,9
2023-01-10T11:41:41.238Z,7
2023-01-10T11:44:43.184Z,8.4
2023-01-10T11:47:45.585Z,13.8
2023-01-10T11:50:47.127Z,10.3
2023-01-10T11:53:49.069Z,9.9
2023-01-10T11:56:51.034Z,11.3
2023-01-10T11:59:52.979Z,9.9
2023-01-10T12:02:54.942Z,9.5
2023-01-10T12:05:56.892Z,9.6
2023-01-10T12:08:58.853Z,11.9
2023-01-10T12:12:00.844Z,8.1
2023-01-10T12:15:02.821Z,9.3
2023-01-10T12:18:04.760Z,12
2023-01-10T12:21:06.730Z,9.7
2023-01-10T12:24:08.666Z,8.8
2023-01-10T12:27:10.635Z,11.1
2023-01-10T12:30:12.568Z,9.3
2023-01-10T12:33:14.534Z,7.6
2023-01-10T12:36:16.501Z,10.3
2023-01-10T12:39:18.815Z,10.6
2023-01-10T12:42:20.439Z,10.8
2023-01-10T12:45:22.449Z,10.7
2023-01-10T12:48:24.395Z,9.3
2023-01-10T12:51:26.332Z,8.3
2023-01-10T12:54:28.309Z,10.8
2023-01-10T12:57:30.276Z,10.3
2023-01-10T13:00:37.551Z,11.1
2023-01-10T13:03:34.185Z,11
2023-01-10T13:06:36.114Z,13.7
2023-01-10T13:09:38.128Z,8.8
2023-01-10T13:12:40.100Z,12.8
2023-01-10T13:15:42.286Z,11.8
2023-01-10T13:18:44.029Z,12.4
2023-01-10T13:21:46.034Z,12.1
2023-01-10T13:24:47.907Z,10.7
2023-01-10T13:27:49.867Z,17.1
2023-01-10T13:30:51.931Z,10.3
2023-01-10T13:33:53.843Z,10.2
2023-01-10T13:36:56.643Z,12.8
2023-01-10T13:39:57.736Z,11.3
2023-01-10T13:42:59.671Z,10.6
2023-01-10T13:46:01.727Z,15.6
2023-01-10T13:49:03.630Z,9.5
2023-01-10T13:52:05.555Z,13.6
2023-01-10T13:55:07.515Z,13.7
2023-01-10T13:58:09.482Z,9.4
2023-01-10T14:01:11.514Z,11.9
2023-01-10T14:04:13.420Z,13
2023-01-10T14:07:15.367Z,7.5
2023-01-10T14:10:17.330Z,12.1
2023-01-10T14:13:19.293Z,15.1
2023-01-10T14:16:21.260Z,14
2023-01-10T14:19:23.196Z,11.5
2023-01-10T14:22:25.177Z,10.6
2023-01-10T14:25:27.153Z,15.2
2023-01-10T14:28:29.097Z,13.8
2023-01-10T14:31:31.073Z,16.3
2023-01-10T14:34:32.981Z,16.8
2023-01-10T14:37:34.977Z,13.3
2023-01-10T14:40:36.959Z,13.3
2023-01-10T14:43:38.952Z,12.9
2023-01-10T14:46:40.933Z,12.7
2023-01-10T14:49:42.828Z,13.3
2023-01-10T14:52:44.805Z,11.1
2023-01-10T14:55:46.750Z,11.9
2023-01-10T14:58:48.809Z,11.4
2023-01-10T15:01:50.703Z,10.4
2023-01-10T15:04:52.659Z,12.1
2023-01-10T15:07:54.608Z,10.3
2023-01-10T15:10:56.530Z,9.7
2023-01-10T15:13:59.941Z,13.9
2023-01-10T15:17:00.492Z,19.2
2023-01-10T15:20:02.484Z,11.6
2023-01-10T15:23:04.420Z,13.2
2023-01-10T15:26:06.374Z,9.8
2023-01-10T15:29:08.306Z,12.9
2023-01-10T15:32:10.288Z,10
2023-01-10T15:35:14.281Z,9.3
2023-01-10T15:38:14.200Z,14.8
2023-01-10T15:41:16.152Z,9.9
2023-01-10T15:44:18.124Z,10.7
2023-01-10T15:47:20.141Z,8.4
2023-01-10T15:50:22.085Z,11.9
2023-01-10T15:53:24.046Z,12.1
2023-01-10T15:56:26.015Z,10
2023-01-10T15:59:27.966Z,19.9
2023-01-10T16:02:30.077Z,13.1
2023-01-10T16:05:31.905Z,11.9
2023-01-10T16:08:33.903Z,12.7
2023-01-10T16:11:35.824Z,13.1
2023-01-10T16:14:37.821Z,13.3
2023-01-10T16:17:39.763Z,10.3
2023-01-10T16:20:41.719Z,19.7
2023-01-10T16:23:43.691Z,11.9
2023-01-10T16:26:45.665Z,10.1
2023-01-10T16:29:47.631Z,11.7
2023-01-10T16:32:49.605Z,10.6
2023-01-10T16:35:51.598Z,12.6
2023-01-10T16:38:53.509Z,10.6
2023-01-10T16:41:55.495Z,14.7
2023-01-10T16:44:57.463Z,11.5
2023-01-10T16:47:59.448Z,21.3
2023-01-10T16:51:01.409Z,9.7
2023-01-10T16:54:03.377Z,10.6
2023-01-10T16:57:05.343Z,12.4
2023-01-10T17:00:07.252Z,13.1
2023-01-10T17:03:09.229Z,8.9
2023-01-10T17:06:11.259Z,10.8
2023-01-10T17:09:13.197Z,7.7
2023-01-10T17:12:15.210Z,11.2
2023-01-10T17:15:17.259Z,11.5
2023-01-10T17:18:19.103Z,11
2023-01-10T17:21:21.058Z,8.1
2023-01-10T17:24:23.048Z,7.7
2023-01-10T17:27:25.005Z,10.2
2023-01-10T17:30:27.022Z,8.2
2023-01-10T17:33:29.001Z,9.8
2023-01-10T17:36:30.930Z,9.6
2023-01-10T17:39:32.913Z,7.2
2023-01-10T17:42:34.843Z,11.4
2023-01-10T17:45:36.844Z,8.1
2023-01-10T17:48:38.746Z,10.3
2023-01-10T17:51:40.727Z,12
2023-01-10T17:54:42.674Z,8.7
2023-01-10T17:57:44.700Z,10.4
2023-01-10T18:00:46.772Z,10.1
2023-01-10T18:03:48.870Z,9.4
2023-01-10T18:06:50.648Z,9.7
2023-01-10T18:09:52.594Z,7.7
2023-01-10T18:12:54.579Z,7
2023-01-10T18:15:56.508Z,8.2
2023-01-10T18:18:58.513Z,9.5
2023-01-10T18:22:00.490Z,8
2023-01-10T18:25:02.479Z,6.5
2023-01-10T18:28:04.473Z,5.5
2023-01-10T18:31:06.472Z,6.2
2023-01-10T18:34:08.384Z,8
2023-01-10T18:37:10.361Z,9.4
2023-01-10T18:40:12.377Z,7.1
2023-01-10T18:43:14.271Z,8.6
2023-01-10T18:46:16.273Z,8.3
2023-01-10T18:49:18.195Z,6.2
2023-01-10T18:52:20.134Z,6.7
2023-01-10T18:55:22.110Z,7.1
2023-01-10T18:58:24.083Z,6.8
2023-01-10T19:01:26.163Z,5.6
2023-01-10T19:04:28.025Z,7.9
2023-01-10T19:07:29.952Z,11
2023-01-10T19:10:44.962Z,8.7
2023-01-10T19:13:33.975Z,8.8
2023-01-10T19:16:35.925Z,7.6
2023-01-10T19:19:37.811Z,9.2
2023-01-10T19:22:39.783Z,6.6
2023-01-10T19:25:41.749Z,8.7
2023-01-10T19:28:43.695Z,7.2
2023-01-10T19:31:45.764Z,9.8
2023-01-10T19:34:47.696Z,6.6
2023-01-10T19:37:49.673Z,10.2
2023-01-10T19:40:51.751Z,6
2023-01-10T19:43:53.727Z,6.5
2023-01-10T19:46:55.681Z,5.9
2023-01-10T19:49:57.652Z,6.5
2023-01-10T19:52:59.623Z,9.3
2023-01-10T19:56:01.595Z,7.6
2023-01-10T19:59:03.588Z,9.7
2023-01-10T20:02:05.511Z,9.1
2023-01-10T20:05:07.498Z,7.6
2023-01-10T20:08:09.460Z,8
2023-01-10T20:11:11.415Z,5.3
2023-01-10T20:14:13.361Z,10.5
2023-01-10T20:17:15.335Z,7.7
2023-01-10T20:20:17.304Z,5.8
2023-01-10T20:23:19.278Z,6.4
2023-01-10T20:26:21.237Z,7.2
2023-01-10T20:29:23.197Z,6.9
2023-01-10T20:32:25.173Z,7.4
2023-01-10T20:35:27.133Z,5.8
2023-01-10T20:38:29.083Z,6.1
2023-01-10T20:41:31.083Z,8.4
2023-01-10T20:44:33.057Z,5.1
2023-01-10T20:47:35.025Z,7.8
2023-01-10T20:50:36.959Z,6.5
2023-01-10T20:53:38.933Z,8.6
2023-01-10T20:56:40.905Z,9.3
2023-01-10T20:59:42.889Z,9
2023-01-10T21:02:44.853Z,11.4
2023-01-10T21:05:46.794Z,5.5
2023-01-10T21:08:48.743Z,8.6
2023-01-10T21:12:01.871Z,8.4
2023-01-10T21:14:52.710Z,6.6
2023-01-10T21:17:54.641Z,9.8
2023-01-10T21:20:56.614Z,8.5
2023-01-10T21:23:58.561Z,7.4
2023-01-10T21:27:00.564Z,8
2023-01-10T21:30:02.531Z,10.9
2023-01-10T21:33:04.462Z,9.4
2023-01-10T21:36:06.419Z,6.8
2023-01-10T21:39:08.436Z,7.4
2023-01-10T21:42:10.435Z,6.1
2023-01-10T21:45:12.365Z,7.6
2023-01-10T21:48:14.348Z,9.4
2023-01-10T21:51:16.315Z,10
2023-01-10T21:54:18.254Z,7.3
2023-01-10T21:57:20.197Z,8.1
2023-01-10T22:00:22.163Z,10.7
2023-01-10T22:03:24.213Z,9.9
2023-01-10T22:06:26.126Z,8.4
2023-01-10T22:09:28.093Z,9.3
2023-01-10T22:12:30.037Z,7.9
2023-01-10T22:15:32.050Z,7
2023-01-10T22:18:34.003Z,11.3
2023-01-10T22:21:35.928Z,7.7
2023-01-10T22:24:37.900Z,12.3
2023-01-10T22:27:39.871Z,9.7
2023-01-10T22:30:41.867Z,7.8
2023-01-10T22:33:43.801Z,9.9
2023-01-10T22:36:45.768Z,7.3
2023-01-10T22:39:48.556Z,11.7
2023-01-10T22:42:49.689Z,9.6
2023-01-10T22:45:51.716Z,8.9
2023-01-10T22:48:53.639Z,7.4
2023-01-10T22:51:55.601Z,9.5
2023-01-10T22:54:57.544Z,13.6
2023-01-10T22:57:59.516Z,7.2
2023-01-10T23:01:01.537Z,10.1
2023-01-10T23:04:03.511Z,6.5
2023-01-10T23:07:05.454Z,8.9
2023-01-10T23:10:17.408Z,7.3
2023-01-10T23:13:09.411Z,10.3
2023-01-10T23:16:11.408Z,11.5
2023-01-10T23:19:13.321Z,5.2
2023-01-10T23:22:15.258Z,6.7
2023-01-10T23:25:17.226Z,6.9
2023-01-10T23:28:19.193Z,6.3
2023-01-10T23:31:21.362Z,8.1
2023-01-10T23:34:23.186Z,4.7
2023-01-10T23:37:25.138Z,6.3
2023-01-10T23:40:27.124Z,6.8
2023-01-10T23:43:29.059Z,6.5
2023-01-10T23:46:31.002Z,9.1
2023-01-10T23:49:33.012Z,6.4
2023-01-10T23:52:34.980Z,8.2
2023-01-10T23:55:36.904Z,8.3
2023-01-10T23:58:38.868Z,5.2
